createdAt,value
2022-08-17T00:00:43.835Z,95.63
2022-08-17T00:03:17.508Z,97.77
2022-08-17T00:05:50.134Z,97.24
2022-08-17T00:08:24.080Z,95.98
2022-08-17T00:10:54.560Z,96.24
2022-08-17T00:13:31.751Z,96.20
2022-08-17T00:16:04.969Z,94.56
2022-08-17T00:19:01.222Z,97.05
2022-08-17T00:21:25.245Z,97.70
2022-08-17T00:23:56.276Z,98.04
2022-08-17T00:26:43.180Z,96.76
2022-08-17T00:29:19.621Z,96.34
2022-08-17T00:31:48.931Z,94.95
2022-08-17T00:34:17.610Z,94.51
2022-08-17T00:36:46.034Z,91.83
2022-08-17T00:39:15.660Z,93.23
2022-08-17T00:41:43.952Z,94.48
2022-08-17T00:44:12.815Z,96.02
2022-08-17T00:46:44.550Z,95.48
2022-08-17T00:49:15.507Z,94.79
2022-08-17T00:51:51.242Z,95.53
2022-08-17T00:54:28.743Z,96.22
2022-08-17T00:57:03.740Z,97.66
2022-08-17T00:59:38.427Z,97.70
2022-08-17T01:02:10.435Z,97.92
2022-08-17T01:04:39.989Z,99.39
2022-08-17T01:07:11.286Z,100.00
2022-08-17T01:09:42.990Z,100.00
2022-08-17T01:12:13.203Z,99.32
2022-08-17T01:14:42.808Z,100.00
2022-08-17T01:17:11.699Z,100.00
2022-08-17T01:19:43.425Z,100.00
2022-08-17T01:22:23.521Z,97.89
2022-08-17T01:24:57.330Z,98.20
2022-08-17T01:27:26.737Z,96.99
2022-08-17T01:30:03.834Z,97.05
2022-08-17T01:32:32.703Z,95.71
2022-08-17T01:35:01.772Z,94.59
2022-08-17T01:37:36.437Z,93.00
2022-08-17T01:40:14.312Z,93.53
2022-08-17T01:42:49.859Z,91.26
2022-08-17T01:45:25.091Z,91.58
2022-08-17T01:47:54.336Z,91.07
2022-08-17T01:50:27.708Z,92.30
2022-08-17T01:53:06.157Z,93.54
2022-08-17T01:55:47.997Z,93.19
2022-08-17T01:58:16.702Z,93.41
2022-08-17T02:01:01.066Z,93.14
2022-08-17T02:03:31.949Z,89.17
2022-08-17T02:06:00.453Z,89.40
2022-08-17T02:08:39.218Z,90.54
2022-08-17T02:11:14.589Z,91.11
2022-08-17T02:13:43.118Z,90.02
2022-08-17T02:16:11.826Z,89.88
2022-08-17T02:18:40.518Z,91.28
2022-08-17T02:21:10.144Z,92.99
2022-08-17T02:23:45.563Z,94.35
2022-08-17T02:26:23.994Z,96.18
2022-08-17T02:28:54.870Z,96.43
2022-08-17T02:31:23.231Z,96.75
2022-08-17T02:34:04.054Z,96.90
2022-08-17T02:36:34.524Z,94.78
2022-08-17T02:39:06.911Z,96.07
2022-08-17T02:41:36.534Z,97.07
2022-08-17T02:44:06.787Z,97.76
2022-08-17T02:46:35.364Z,99.25
2022-08-17T02:49:04.546Z,97.93
2022-08-17T02:51:33.112Z,97.84
2022-08-17T02:54:39.097Z,98.48
2022-08-17T02:56:51.054Z,99.27
2022-08-17T02:59:19.413Z,100.00
2022-08-17T03:01:47.763Z,100.00
2022-08-17T03:04:16.062Z,100.00
2022-08-17T03:06:44.317Z,100.00
2022-08-17T03:09:13.202Z,98.83
2022-08-17T03:11:41.546Z,99.46
2022-08-17T03:14:11.181Z,99.14
2022-08-17T03:16:41.293Z,97.43
2022-08-17T03:19:10.845Z,98.27
2022-08-17T03:21:39.137Z,97.83
2022-08-17T03:24:09.274Z,98.91
2022-08-17T03:26:37.729Z,98.31
2022-08-17T03:29:05.989Z,98.30
2022-08-17T03:31:37.112Z,97.94
2022-08-17T03:34:05.938Z,98.30
2022-08-17T03:36:36.010Z,98.63
2022-08-17T03:39:05.531Z,99.11
2022-08-17T03:41:34.519Z,98.32
2022-08-17T03:44:02.897Z,98.08
2022-08-17T03:46:49.177Z,99.49
2022-08-17T03:49:36.100Z,99.23
2022-08-17T03:52:22.333Z,98.87
2022-08-17T03:55:08.421Z,100.00
2022-08-17T03:57:36.813Z,100.00
2022-08-17T04:00:07.696Z,100.00
2022-08-17T04:02:40.429Z,100.00
2022-08-17T04:05:10.725Z,100.00
2022-08-17T04:07:38.973Z,100.00
2022-08-17T04:10:08.900Z,100.00
2022-08-17T04:12:48.452Z,99.64
2022-08-17T04:15:18.456Z,99.22
2022-08-17T04:17:46.808Z,99.81
2022-08-17T04:20:20.194Z,100.00
2022-08-17T04:23:03.156Z,99.75
2022-08-17T04:25:36.398Z,100.00
2022-08-17T04:28:07.718Z,100.00
2022-08-17T04:30:46.005Z,100.00
2022-08-17T04:33:17.260Z,100.00
2022-08-17T04:35:50.093Z,100.00
2022-08-17T04:38:22.671Z,100.00
2022-08-17T04:41:09.937Z,100.00
2022-08-17T04:43:41.626Z,100.00
2022-08-17T04:46:15.006Z,100.00
2022-08-17T04:48:46.201Z,100.00
2022-08-17T04:51:19.758Z,100.00
2022-08-17T04:53:54.658Z,100.00
2022-08-17T04:56:26.214Z,100.00
2022-08-17T04:58:58.171Z,100.00
2022-08-17T05:01:30.022Z,100.00
2022-08-17T05:04:32.853Z,100.00
2022-08-17T05:06:54.662Z,100.00
2022-08-17T05:09:23.054Z,100.00
2022-08-17T05:11:52.679Z,100.00
2022-08-17T05:14:33.194Z,100.00
2022-08-17T05:17:09.388Z,100.00
2022-08-17T05:19:39.881Z,100.00
2022-08-17T05:22:09.643Z,100.00
2022-08-17T05:24:42.633Z,99.24
2022-08-17T05:27:19.262Z,100.00
2022-08-17T05:29:47.544Z,98.12
2022-08-17T05:32:39.110Z,96.86
2022-08-17T05:35:05.531Z,94.79
2022-08-17T05:37:35.223Z,93.44
2022-08-17T05:40:03.628Z,92.65
2022-08-17T05:42:32.369Z,92.04
2022-08-17T05:45:00.640Z,93.79
2022-08-17T05:47:31.178Z,93.16
2022-08-17T05:50:00.490Z,92.08
2022-08-17T05:52:44.641Z,90.78
2022-08-17T05:55:24.849Z,86.96
2022-08-17T05:58:15.421Z,85.57
2022-08-17T06:00:56.595Z,85.93
2022-08-17T06:03:45.576Z,83.66
2022-08-17T06:06:32.443Z,84.06
2022-08-17T06:09:28.925Z,83.73
2022-08-17T06:12:21.513Z,78.09
2022-08-17T06:15:10.789Z,75.11
2022-08-17T06:17:39.854Z,76.13
2022-08-17T06:20:13.173Z,78.10
2022-08-17T06:22:48.968Z,73.30
2022-08-17T06:25:27.497Z,70.44
2022-08-17T06:28:03.861Z,68.48
2022-08-17T06:31:00.081Z,66.79
2022-08-17T06:33:36.328Z,70.85
2022-08-17T06:36:28.078Z,67.61
2022-08-17T06:39:13.869Z,63.92
2022-08-17T06:41:57.434Z,62.63
2022-08-17T06:44:50.204Z,65.23
2022-08-17T06:47:35.098Z,61.97
2022-08-17T06:50:19.411Z,62.48
2022-08-17T06:52:58.593Z,60.41
2022-08-17T06:55:37.926Z,60.57
2022-08-17T06:58:15.923Z,58.74
2022-08-17T07:00:49.912Z,58.00
2022-08-17T07:03:33.375Z,58.50
2022-08-17T07:06:09.429Z,57.39
2022-08-17T07:08:52.194Z,59.92
2022-08-17T07:11:32.542Z,55.73
2022-08-17T07:14:28.406Z,57.65
2022-08-17T07:17:02.799Z,60.37
2022-08-17T07:19:36.030Z,54.04
2022-08-17T07:22:19.031Z,57.36
2022-08-17T07:24:53.651Z,53.55
2022-08-17T07:27:27.548Z,56.56
2022-08-17T07:30:10.231Z,57.94
2022-08-17T07:32:45.271Z,51.80
2022-08-17T07:35:21.066Z,48.61
2022-08-17T07:37:55.586Z,48.54
2022-08-17T07:40:33.465Z,54.00
2022-08-17T07:43:21.998Z,49.79
2022-08-17T07:46:23.366Z,52.78
2022-08-17T07:48:56.972Z,52.21
2022-08-17T07:51:30.351Z,52.30
2022-08-17T07:54:14.229Z,49.64
2022-08-17T07:56:48.725Z,47.82
2022-08-17T07:59:23.461Z,50.36
2022-08-17T08:02:38.221Z,49.07
2022-08-17T08:05:14.235Z,44.68
2022-08-17T08:08:02.837Z,49.25
2022-08-17T08:10:38.523Z,45.39
2022-08-17T08:13:22.955Z,45.49
2022-08-17T08:15:55.220Z,47.38
2022-08-17T08:18:55.015Z,46.15
2022-08-17T08:21:34.332Z,42.06
2022-08-17T08:24:37.279Z,41.36
2022-08-17T08:27:22.163Z,39.49
2022-08-17T08:29:56.445Z,40.82
2022-08-17T08:32:48.587Z,40.38
2022-08-17T08:35:32.450Z,40.53
2022-08-17T08:38:16.395Z,37.32
2022-08-17T08:41:03.407Z,41.83
2022-08-17T08:43:52.856Z,40.10
2022-08-17T08:46:36.251Z,38.91
2022-08-17T08:50:37.395Z,38.68
2022-08-17T08:53:04.719Z,36.32
2022-08-17T08:55:50.197Z,36.93
2022-08-17T08:58:31.344Z,42.38
2022-08-17T09:01:16.602Z,36.98
2022-08-17T09:04:23.227Z,36.09
2022-08-17T09:07:08.493Z,35.68
2022-08-17T09:09:54.212Z,36.35
2022-08-17T09:12:37.383Z,33.89
2022-08-17T09:15:17.650Z,35.12
2022-08-17T09:18:28.479Z,34.73
2022-08-17T09:20:56.430Z,35.45
2022-08-17T09:23:34.722Z,33.39
2022-08-17T09:26:18.113Z,33.86
2022-08-17T09:28:52.397Z,33.03
2022-08-17T09:31:31.255Z,36.46
2022-08-17T09:34:09.689Z,37.22
2022-08-17T09:36:46.583Z,37.16
2022-08-17T09:39:30.656Z,34.56
2022-08-17T09:42:11.851Z,30.85
2022-08-17T09:44:50.041Z,36.13
2022-08-17T09:47:31.701Z,30.58
2022-08-17T09:50:14.643Z,34.80
2022-08-17T09:52:44.785Z,32.62
2022-08-17T09:55:13.231Z,31.99
2022-08-17T09:58:10.797Z,32.13
2022-08-17T10:00:53.134Z,32.00
2022-08-17T10:04:00.846Z,33.08
2022-08-17T10:06:36.517Z,31.25
2022-08-17T10:09:18.759Z,32.88
2022-08-17T10:12:17.209Z,29.48
2022-08-17T10:15:09.722Z,32.79
2022-08-17T10:17:55.557Z,32.90
2022-08-17T10:20:31.171Z,31.48
2022-08-17T10:23:25.571Z,34.55
2022-08-17T10:26:16.534Z,33.87
2022-08-17T10:28:52.759Z,30.44
2022-08-17T10:31:36.445Z,30.06
2022-08-17T10:34:45.917Z,29.09
2022-08-17T10:37:40.627Z,28.87
2022-08-17T10:40:36.148Z,29.51
2022-08-17T10:43:26.659Z,30.89
2022-08-17T10:46:09.279Z,31.64
2022-08-17T10:49:26.002Z,31.43
2022-08-17T10:51:56.781Z,27.07
2022-08-17T10:54:39.424Z,27.58
2022-08-17T10:57:39.946Z,25.68
2022-08-17T11:00:44.618Z,28.45
2022-08-17T11:03:22.147Z,28.41
2022-08-17T11:06:07.062Z,29.77
2022-08-17T11:09:20.863Z,33.11
2022-08-17T11:12:12.222Z,27.70
2022-08-17T11:15:00.416Z,28.30
2022-08-17T11:18:22.403Z,29.79
2022-08-17T11:21:26.185Z,28.89
2022-08-17T11:24:17.633Z,28.83
2022-08-17T11:27:03.205Z,31.93
2022-08-17T11:29:39.754Z,27.13
2022-08-17T11:32:13.682Z,28.42
2022-08-17T11:34:44.635Z,27.82
2022-08-17T11:37:43.616Z,25.84
2022-08-17T11:40:49.269Z,27.21
2022-08-17T11:44:02.012Z,29.30
2022-08-17T11:47:11.165Z,31.22
2022-08-17T11:50:33.474Z,33.30
2022-08-17T11:53:03.684Z,28.06
2022-08-17T11:56:05.909Z,28.34
2022-08-17T11:58:41.880Z,26.28
2022-08-17T12:01:16.235Z,28.86
2022-08-17T12:03:58.907Z,27.70
2022-08-17T12:06:49.286Z,31.66
2022-08-17T12:09:24.625Z,25.23
2022-08-17T12:12:11.944Z,25.16
2022-08-17T12:15:09.611Z,24.69
2022-08-17T12:17:40.254Z,27.96
2022-08-17T12:20:17.617Z,24.68
2022-08-17T12:22:56.540Z,26.63
2022-08-17T12:25:35.485Z,27.13
2022-08-17T12:28:07.601Z,26.02
2022-08-17T12:30:38.585Z,26.12
2022-08-17T12:33:25.231Z,23.52
2022-08-17T12:36:03.864Z,23.44
2022-08-17T12:38:36.031Z,24.44
2022-08-17T12:41:22.797Z,26.35
2022-08-17T12:44:01.975Z,26.27
2022-08-17T12:46:45.493Z,26.05
2022-08-17T12:49:26.449Z,25.92
2022-08-17T12:52:09.971Z,28.45
2022-08-17T12:54:50.830Z,26.82
2022-08-17T12:57:26.334Z,25.71
2022-08-17T13:00:00.869Z,26.22
2022-08-17T13:02:43.786Z,26.15
2022-08-17T13:05:30.408Z,27.24
2022-08-17T13:08:01.168Z,25.48
2022-08-17T13:10:33.449Z,26.38
2022-08-17T13:13:17.729Z,26.36
2022-08-17T13:15:56.018Z,28.52
2022-08-17T13:18:41.454Z,25.16
2022-08-17T13:21:27.794Z,23.88
2022-08-17T13:24:01.949Z,23.94
2022-08-17T13:26:36.551Z,26.32
2022-08-17T13:29:18.465Z,29.83
2022-08-17T13:31:53.020Z,28.01
2022-08-17T13:35:11.814Z,25.21
2022-08-17T13:37:33.452Z,25.86
2022-08-17T13:40:36.632Z,24.21
2022-08-17T13:43:05.568Z,24.03
2022-08-17T13:45:50.732Z,25.68
2022-08-17T13:48:30.059Z,24.89
2022-08-17T13:51:29.260Z,24.75
2022-08-17T13:54:26.899Z,24.81
2022-08-17T13:57:04.144Z,25.03
2022-08-17T13:59:53.326Z,23.46
2022-08-17T14:02:22.510Z,24.45
2022-08-17T14:04:54.352Z,24.63
2022-08-17T14:07:34.964Z,26.06
2022-08-17T14:10:12.022Z,24.90
2022-08-17T14:12:44.675Z,26.20
2022-08-17T14:15:16.791Z,25.99
2022-08-17T14:17:45.449Z,26.30
2022-08-17T14:20:15.365Z,27.48
2022-08-17T14:22:49.457Z,25.96
2022-08-17T14:25:22.767Z,25.56
2022-08-17T14:27:54.222Z,26.31
2022-08-17T14:30:26.886Z,26.64
2022-08-17T14:33:02.071Z,25.85
2022-08-17T14:35:30.649Z,25.64
2022-08-17T14:37:59.145Z,25.79
2022-08-17T14:40:28.110Z,26.35
2022-08-17T14:42:58.435Z,27.57
2022-08-17T14:45:32.242Z,27.24
2022-08-17T14:48:05.616Z,25.73
2022-08-17T14:50:35.335Z,25.42
2022-08-17T14:53:05.165Z,26.28
2022-08-17T14:55:33.704Z,26.07
2022-08-17T14:58:03.997Z,26.71
2022-08-17T15:00:32.473Z,24.99
2022-08-17T15:03:02.929Z,26.91
2022-08-17T15:05:34.488Z,27.61
2022-08-17T15:08:04.635Z,26.08
2022-08-17T15:10:34.216Z,24.25
2022-08-17T15:13:04.040Z,23.17
2022-08-17T15:15:32.672Z,23.95
2022-08-17T15:18:02.478Z,25.57
2022-08-17T15:20:31.632Z,25.13
2022-08-17T15:23:01.034Z,25.50
2022-08-17T15:25:32.971Z,25.61
2022-08-17T15:28:03.294Z,25.02
2022-08-17T15:30:32.770Z,24.28
2022-08-17T15:33:02.746Z,25.43
2022-08-17T15:35:34.805Z,25.73
2022-08-17T15:38:12.153Z,25.93
2022-08-17T15:40:45.424Z,26.54
2022-08-17T15:43:22.139Z,25.63
2022-08-17T15:46:00.798Z,28.01
2022-08-17T15:48:41.360Z,26.99
2022-08-17T15:51:12.850Z,26.81
2022-08-17T15:53:44.176Z,27.59
2022-08-17T15:56:13.667Z,27.52
2022-08-17T15:58:46.623Z,28.87
2022-08-17T16:01:45.449Z,28.94
2022-08-17T16:04:07.319Z,28.85
2022-08-17T16:06:49.901Z,29.27
2022-08-17T16:09:18.264Z,29.59
2022-08-17T16:11:46.498Z,29.38
2022-08-17T16:14:24.067Z,29.36
2022-08-17T16:16:53.090Z,29.11
2022-08-17T16:19:21.323Z,30.30
2022-08-17T16:21:49.558Z,29.50
2022-08-17T16:24:17.869Z,29.45
2022-08-17T16:26:46.463Z,29.61
2022-08-17T16:29:14.688Z,30.18
2022-08-17T16:31:44.354Z,30.83
2022-08-17T16:34:16.731Z,31.41
2022-08-17T16:36:55.043Z,33.95
2022-08-17T16:39:27.453Z,32.31
2022-08-17T16:41:56.295Z,34.44
2022-08-17T16:44:25.915Z,34.52
2022-08-17T16:46:55.981Z,36.68
2022-08-17T16:49:36.832Z,33.93
2022-08-17T16:52:11.177Z,33.24
2022-08-17T16:54:43.726Z,34.53
2022-08-17T16:57:13.652Z,35.60
2022-08-17T16:59:47.776Z,33.92
2022-08-17T17:02:27.062Z,34.33
2022-08-17T17:05:06.598Z,34.16
2022-08-17T17:07:59.181Z,34.56
2022-08-17T17:10:36.750Z,36.80
2022-08-17T17:13:12.092Z,36.48
2022-08-17T17:15:55.102Z,39.39
2022-08-17T17:18:38.858Z,39.34
2022-08-17T17:21:14.899Z,39.38
2022-08-17T17:23:53.885Z,37.17
2022-08-17T17:27:07.930Z,38.83
2022-08-17T17:29:55.518Z,39.62
2022-08-17T17:32:37.872Z,40.41
2022-08-17T17:35:15.974Z,42.27
2022-08-17T17:37:47.421Z,41.70
2022-08-17T17:40:23.065Z,42.55
2022-08-17T17:42:56.535Z,41.76
2022-08-17T17:45:31.334Z,41.26
2022-08-17T17:47:59.818Z,41.73
2022-08-17T17:50:36.057Z,42.46
2022-08-17T17:53:10.641Z,43.87
2022-08-17T17:55:55.038Z,42.80
2022-08-17T17:58:49.753Z,42.62
2022-08-17T18:01:42.198Z,42.73
2022-08-17T18:04:27.837Z,41.91
2022-08-17T18:07:22.843Z,42.12
2022-08-17T18:10:19.477Z,43.68
2022-08-17T18:13:13.443Z,42.86
2022-08-17T18:15:51.550Z,42.15
2022-08-17T18:18:40.504Z,44.07
2022-08-17T18:21:19.540Z,45.04
2022-08-17T18:23:56.335Z,43.21
2022-08-17T18:26:49.236Z,43.16
2022-08-17T18:29:45.864Z,43.05
2022-08-17T18:32:33.303Z,43.81
2022-08-17T18:35:29.082Z,43.92
2022-08-17T18:38:20.532Z,44.79
2022-08-17T18:41:16.218Z,44.20
2022-08-17T18:43:53.735Z,45.92
2022-08-17T18:46:31.717Z,44.86
2022-08-17T18:49:04.586Z,45.15
2022-08-17T18:51:41.384Z,45.46
2022-08-17T18:54:20.585Z,46.19
2022-08-17T18:56:59.022Z,45.27
2022-08-17T18:59:34.990Z,45.67
2022-08-17T19:02:41.759Z,46.00
2022-08-17T19:05:38.770Z,46.82
2022-08-17T19:08:23.559Z,46.40
2022-08-17T19:10:57.054Z,46.14
2022-08-17T19:13:36.774Z,46.14
2022-08-17T19:16:17.558Z,47.68
2022-08-17T19:18:54.387Z,47.71
2022-08-17T19:21:33.473Z,48.00
2022-08-17T19:24:11.109Z,47.73
2022-08-17T19:26:53.743Z,47.70
2022-08-17T19:29:36.801Z,47.96
2022-08-17T19:32:08.904Z,47.39
2022-08-17T19:34:44.827Z,48.82
2022-08-17T19:37:31.239Z,47.88
2022-08-17T19:40:41.748Z,47.67
2022-08-17T19:43:30.653Z,47.76
2022-08-17T19:46:20.325Z,48.67
2022-08-17T19:49:04.794Z,48.48
2022-08-17T19:51:46.257Z,47.95
2022-08-17T19:54:27.134Z,47.65
2022-08-17T19:57:04.213Z,48.24
2022-08-17T19:59:50.798Z,48.84
2022-08-17T20:02:36.732Z,48.63
2022-08-17T20:05:16.733Z,48.39
2022-08-17T20:07:56.064Z,49.61
2022-08-17T20:10:36.854Z,48.65
2022-08-17T20:13:12.673Z,49.25
2022-08-17T20:15:44.928Z,48.16
2022-08-17T20:18:32.163Z,48.93
2022-08-17T20:21:07.171Z,49.23
2022-08-17T20:23:52.129Z,49.85
2022-08-17T20:26:27.590Z,50.10
2022-08-17T20:29:40.300Z,49.96
2022-08-17T20:32:23.917Z,50.49
2022-08-17T20:35:19.299Z,50.92
2022-08-17T20:37:57.702Z,49.49
2022-08-17T20:40:35.173Z,49.93
2022-08-17T20:43:45.971Z,50.69
2022-08-17T20:46:52.814Z,50.64
2022-08-17T20:49:32.256Z,50.58
2022-08-17T20:52:08.757Z,50.79
2022-08-17T20:54:51.612Z,51.12
2022-08-17T20:57:48.975Z,50.92
2022-08-17T21:00:45.657Z,51.25
2022-08-17T21:03:51.794Z,50.52
2022-08-17T21:06:25.046Z,51.92
2022-08-17T21:09:27.946Z,51.45
2022-08-17T21:12:03.994Z,52.47
2022-08-17T21:14:59.683Z,51.50
2022-08-17T21:17:51.323Z,49.66
2022-08-17T21:20:35.671Z,49.39
2022-08-17T21:23:43.199Z,49.51
2022-08-17T21:26:31.450Z,49.51
2022-08-17T21:29:31.991Z,49.31
2022-08-17T21:32:24.266Z,48.32
2022-08-17T21:35:48.349Z,48.15
2022-08-17T21:38:21.244Z,48.38
2022-08-17T21:40:53.901Z,47.73
2022-08-17T21:43:32.002Z,47.98
2022-08-17T21:46:05.345Z,47.81
2022-08-17T21:48:44.958Z,48.76
2022-08-17T21:51:23.455Z,48.04
2022-08-17T21:53:55.841Z,48.81
2022-08-17T21:56:29.002Z,47.87
2022-08-17T21:59:02.957Z,49.12
2022-08-17T22:01:36.039Z,48.77
2022-08-17T22:04:17.726Z,49.13
2022-08-17T22:06:57.419Z,48.04
2022-08-17T22:09:29.855Z,48.84
2022-08-17T22:12:07.634Z,47.45
2022-08-17T22:14:52.129Z,48.66
2022-08-17T22:17:26.303Z,48.42
2022-08-17T22:19:59.932Z,48.17
2022-08-17T22:23:00.103Z,48.79
2022-08-17T22:25:29.587Z,48.83
2022-08-17T22:28:01.365Z,50.54
2022-08-17T22:30:40.083Z,49.75
2022-08-17T22:33:36.854Z,50.19
2022-08-17T22:36:25.267Z,50.50
2022-08-17T22:38:57.304Z,50.40
2022-08-17T22:41:44.575Z,53.69
2022-08-17T22:44:23.402Z,54.05
2022-08-17T22:47:06.690Z,57.07
2022-08-17T22:49:53.905Z,61.28
2022-08-17T22:52:57.157Z,62.79
2022-08-17T22:55:44.413Z,62.93
2022-08-17T22:58:34.823Z,64.73
2022-08-17T23:01:26.436Z,73.75
2022-08-17T23:03:58.516Z,81.05
2022-08-17T23:06:26.809Z,84.71
2022-08-17T23:08:57.623Z,85.60
2022-08-17T23:11:36.980Z,87.10
2022-08-17T23:14:19.104Z,87.27
2022-08-17T23:16:48.677Z,86.96
2022-08-17T23:19:21.667Z,86.43
2022-08-17T23:21:54.425Z,88.90
2022-08-17T23:24:27.368Z,92.33
2022-08-17T23:26:58.145Z,99.44
2022-08-17T23:29:29.463Z,100.00
2022-08-17T23:32:01.337Z,100.00
2022-08-17T23:34:31.312Z,100.00
2022-08-17T23:37:02.358Z,100.00
2022-08-17T23:39:30.903Z,100.00
2022-08-17T23:42:01.526Z,100.00
2022-08-17T23:44:30.989Z,100.00
2022-08-17T23:46:59.607Z,100.00
2022-08-17T23:49:28.706Z,100.00
2022-08-17T23:52:00.898Z,100.00
2022-08-17T23:54:35.142Z,100.00
2022-08-17T23:57:05.016Z,100.00
2022-08-17T23:59:34.012Z,100.00
